Station Historical Data
 
Daily Summary for July 22, 2017 Units:  Metric    English   Both
« Previous Day
Next Day »
Daily Weekly Monthly Yearly Custom
  Current: High: Low: Average:
Temperature: 17.9 °C 20.1 °C 17.9 °C 18.9 °C
Dew Point: 17.9 °C 19.2 °C 17.9 °C 18.7 °C
Humidity: 100 % 100 % 94 % 99 %
Wind Speed: 0.0 km/h 3.5 km/h 0.0 km/h 0.2 km/h
Wind Gust: 0.0 km/h 5.0 km/h - -
Wind:Calm - - SSW
Pressure: 1014.8 hPa 1014.8 hPa 1013.8 hPa -
Precipitation: 0.0 mm      
Historical Graphs
 
 
Tabular Data for July 22, 2017
Time Temperature Dew Point Pressure Wind Wind Speed Wind Gust Humidity Rainfall Rate (Hourly) solar Conditions
00:02 20.1 °C 19.1 °C 1014.8 hPa Calm     94 % 0.0 mm meteobridge W/m2
00:08 20.0 °C 19.2 °C 1014.8 hPa Calm     95 % 0.0 mm meteobridge W/m2
00:15 20.0 °C 19.2 °C 1014.8 hPa Calm     95 % 0.0 mm meteobridge W/m2
00:21 20.0 °C 19.2 °C 1014.8 hPa Calm     95 % 0.0 mm meteobridge W/m2
00:27 19.9 °C 19.2 °C 1014.8 hPa Calm     96 % 0.0 mm meteobridge W/m2
00:32 19.7 °C 19.0 °C 1014.8 hPa Calm   -1607.4 km/h 96 % 0.0 mm meteobridge W/m2
00:36 19.7 °C 19.0 °C 1014.8 hPa Calm   -1607.4 km/h 96 % 0.0 mm meteobridge W/m2
00:47 19.6 °C 18.9 °C 1014.8 hPa Calm     96 % 0.0 mm meteobridge W/m2
00:53 19.6 °C 18.9 °C 1014.8 hPa Calm     96 % 0.0 mm meteobridge W/m2
01:02 19.3 °C 19.0 °C 1014.8 hPa Calm     98 % 0.0 mm meteobridge W/m2
01:08 19.4 °C 19.2 °C 1014.8 hPa Calm     99 % 0.0 mm meteobridge W/m2
01:14 19.4 °C 19.1 °C 1014.8 hPa Calm     98 % 0.0 mm meteobridge W/m2
01:21 19.2 °C 19.0 °C 1014.8 hPa Calm     99 % 0.0 mm meteobridge W/m2
01:27 19.2 °C 19.2 °C 1014.8 hPa Calm     100 % 0.0 mm meteobridge W/m2
01:34 19.1 °C 19.1 °C 1014.8 hPa Calm     100 % 0.0 mm meteobridge W/m2
01:40 19.0 °C 19.0 °C 1014.8 hPa Calm     100 % 0.0 mm meteobridge W/m2
01:47 18.9 °C 18.9 °C 1014.8 hPa Calm     100 % 0.0 mm meteobridge W/m2
01:53 18.9 °C 18.9 °C 1014.8 hPa Calm     100 % 0.0 mm meteobridge W/m2
02:00 18.9 °C 18.9 °C 1014.8 hPa Calm     100 % 0.0 mm meteobridge W/m2
02:03 19.0 °C 19.0 °C 1014.8 hPa Calm     100 % 0.0 mm meteobridge W/m2
02:09 18.9 °C 18.9 °C 1014.8 hPa Calm     100 % 0.0 mm meteobridge W/m2
02:15 19.1 °C 19.1 °C 1014.8 hPa Calm     100 % 0.0 mm meteobridge W/m2
02:22 19.0 °C 19.0 °C 1014.8 hPa Calm     100 % 0.0 mm meteobridge W/m2
02:27 19.0 °C 19.0 °C 1014.8 hPa Calm     100 % 0.0 mm meteobridge W/m2
02:34 18.8 °C 18.8 °C 1014.8 hPa Calm     100 % 0.0 mm meteobridge W/m2
02:40 18.8 °C 18.8 °C 1014.8 hPa Calm     100 % 0.0 mm meteobridge W/m2
02:47 18.8 °C 18.8 °C 1014.8 hPa Calm     100 % 0.0 mm meteobridge W/m2
02:54 18.7 °C 18.7 °C 1014.8 hPa Calm   5.0 km/h 100 % 0.0 mm meteobridge W/m2
03:03 18.7 °C 18.7 °C 1014.8 hPa Calm     100 % 0.0 mm meteobridge W/m2
03:10 18.6 °C 18.6 °C 1014.8 hPa Calm     100 % 0.0 mm meteobridge W/m2
03:16 18.5 °C 18.5 °C 1014.8 hPa Calm     100 % 0.0 mm meteobridge W/m2
03:21 18.4 °C 18.4 °C 1014.8 hPa Calm   2.1 km/h 100 % 0.0 mm meteobridge W/m2
03:27 18.4 °C 18.4 °C 1014.8 hPa Calm     100 % 0.0 mm meteobridge W/m2
03:34 18.4 °C 18.4 °C 1014.8 hPa Calm     100 % 0.0 mm meteobridge W/m2
03:41 18.3 °C 18.3 °C 1014.8 hPa Calm     100 % 0.0 mm meteobridge W/m2
03:47 18.4 °C 18.4 °C 1014.8 hPa SSW 1.8 km/h 1.8 km/h 100 % 0.0 mm meteobridge W/m2
03:52 18.3 °C 18.3 °C 1014.8 hPa SSW 3.5 km/h 3.5 km/h 100 % 0.0 mm meteobridge W/m2
03:59 18.2 °C 18.2 °C 1014.8 hPa Calm     100 % 0.0 mm meteobridge W/m2
04:04 18.1 °C 18.1 °C 1014.8 hPa Calm   1.4 km/h 100 % 0.0 mm meteobridge W/m2
04:10 18.0 °C 18.0 °C 1014.8 hPa Calm     100 % 0.0 mm meteobridge W/m2
04:17 18.0 °C 18.0 °C 1013.8 hPa SW 2.1 km/h 2.1 km/h 100 % 0.0 mm meteobridge W/m2
04:23 18.1 °C 18.1 °C 1013.8 hPa Calm     100 % 0.0 mm meteobridge W/m2
04:30 18.0 °C 18.0 °C 1014.8 hPa Calm     100 % 0.0 mm meteobridge W/m2
04:36 17.9 °C 17.9 °C 1014.8 hPa Calm     100 % 0.0 mm meteobridge W/m2
04:42 17.9 °C 17.9 °C 1014.8 hPa Calm     100 % 0.0 mm meteobridge W/m2
Juneau County Weather
Compliments of Weather Underground - 1.25 mb